sensor_id;sensor_type;location;lat;lon;timestamp;temperature;humidity
8914;DHT22;4492;48.736;9.092;2023-04-29T00:00:09;10.80;99.90
8914;DHT22;4492;48.736;9.092;2023-04-29T00:02:35;10.80;99.90
8914;DHT22;4492;48.736;9.092;2023-04-29T00:05:01;10.80;99.90
8914;DHT22;4492;48.736;9.092;2023-04-29T00:07:30;10.80;99.90
8914;DHT22;4492;48.736;9.092;2023-04-29T00:09:57;10.80;99.90
8914;DHT22;4492;48.736;9.092;2023-04-29T00:12:23;10.80;99.90
8914;DHT22;4492;48.736;9.092;2023-04-29T00:14:49;10.80;99.90
8914;DHT22;4492;48.736;9.092;2023-04-29T00:17:14;10.80;99.90
8914;DHT22;4492;48.736;9.092;2023-04-29T00:19:40;10.80;99.90
8914;DHT22;4492;48.736;9.092;2023-04-29T00:22:06;10.80;99.90
8914;DHT22;4492;48.736;9.092;2023-04-29T00:24:32;10.80;99.90
8914;DHT22;4492;48.736;9.092;2023-04-29T00:26:58;10.80;99.90
8914;DHT22;4492;48.736;9.092;2023-04-29T00:29:23;10.90;99.90
8914;DHT22;4492;48.736;9.092;2023-04-29T00:31:49;10.90;99.90
8914;DHT22;4492;48.736;9.092;2023-04-29T00:34:15;10.80;99.90
8914;DHT22;4492;48.736;9.092;2023-04-29T00:36:41;10.80;99.90
8914;DHT22;4492;48.736;9.092;2023-04-29T00:39:06;10.80;99.90
8914;DHT22;4492;48.736;9.092;2023-04-29T00:41:32;10.80;99.90
8914;DHT22;4492;48.736;9.092;2023-04-29T00:43:58;10.80;99.90
8914;DHT22;4492;48.736;9.092;2023-04-29T00:46:24;10.80;99.90
8914;DHT22;4492;48.736;9.092;2023-04-29T00:48:49;10.80;99.90
8914;DHT22;4492;48.736;9.092;2023-04-29T00:51:16;10.80;99.90
8914;DHT22;4492;48.736;9.092;2023-04-29T00:53:42;10.70;99.90
8914;DHT22;4492;48.736;9.092;2023-04-29T00:56:09;10.60;99.90
8914;DHT22;4492;48.736;9.092;2023-04-29T00:58:35;10.60;99.90
8914;DHT22;4492;48.736;9.092;2023-04-29T01:01:03;10.60;99.90
8914;DHT22;4492;48.736;9.092;2023-04-29T01:03:30;10.60;99.90
8914;DHT22;4492;48.736;9.092;2023-04-29T01:11:34;10.50;99.90
8914;DHT22;4492;48.736;9.092;2023-04-29T01:14:02;10.50;99.90
8914;DHT22;4492;48.736;9.092;2023-04-29T01:16:37;10.50;99.90
8914;DHT22;4492;48.736;9.092;2023-04-29T01:19:20;10.40;99.90
8914;DHT22;4492;48.736;9.092;2023-04-29T01:21:52;10.30;99.90
8914;DHT22;4492;48.736;9.092;2023-04-29T01:24:18;10.30;99.90
8914;DHT22;4492;48.736;9.092;2023-04-29T01:26:55;10.30;99.90
8914;DHT22;4492;48.736;9.092;2023-04-29T01:29:31;10.20;99.90
8914;DHT22;4492;48.736;9.092;2023-04-29T01:32:10;10.20;99.90
8914;DHT22;4492;48.736;9.092;2023-04-29T01:34:54;10.10;99.90
8914;DHT22;4492;48.736;9.092;2023-04-29T01:37:45;10.10;99.90
8914;DHT22;4492;48.736;9.092;2023-04-29T01:42:45;10.10;99.90
8914;DHT22;4492;48.736;9.092;2023-04-29T01:45:15;10.30;99.90
8914;DHT22;4492;48.736;9.092;2023-04-29T01:47:44;10.30;99.90
8914;DHT22;4492;48.736;9.092;2023-04-29T01:50:11;10.40;99.90
8914;DHT22;4492;48.736;9.092;2023-04-29T01:52:40;10.40;99.90
8914;DHT22;4492;48.736;9.092;2023-04-29T01:55:06;10.40;99.90
8914;DHT22;4492;48.736;9.092;2023-04-29T01:57:32;10.50;99.90
8914;DHT22;4492;48.736;9.092;2023-04-29T01:59:58;10.60;99.90
8914;DHT22;4492;48.736;9.092;2023-04-29T02:02:23;10.70;99.90
8914;DHT22;4492;48.736;9.092;2023-04-29T02:04:49;10.70;99.90
8914;DHT22;4492;48.736;9.092;2023-04-29T02:07:16;10.70;99.90
8914;DHT22;4492;48.736;9.092;2023-04-29T02:09:42;10.80;99.90
8914;DHT22;4492;48.736;9.092;2023-04-29T02:12:07;10.80;99.90
8914;DHT22;4492;48.736;9.092;2023-04-29T02:14:33;10.70;99.90
8914;DHT22;4492;48.736;9.092;2023-04-29T02:16:59;10.80;99.90
8914;DHT22;4492;48.736;9.092;2023-04-29T02:19:25;10.80;99.90
8914;DHT22;4492;48.736;9.092;2023-04-29T02:21:50;10.80;99.90
8914;DHT22;4492;48.736;9.092;2023-04-29T02:24:16;10.70;99.90
8914;DHT22;4492;48.736;9.092;2023-04-29T02:26:42;10.60;99.90
8914;DHT22;4492;48.736;9.092;2023-04-29T02:29:08;10.50;99.90
8914;DHT22;4492;48.736;9.092;2023-04-29T02:31:34;10.40;99.90
8914;DHT22;4492;48.736;9.092;2023-04-29T02:34:01;10.30;99.90
8914;DHT22;4492;48.736;9.092;2023-04-29T02:36:27;10.20;99.90
8914;DHT22;4492;48.736;9.092;2023-04-29T02:38:52;10.10;99.90
8914;DHT22;4492;48.736;9.092;2023-04-29T02:41:20;10.00;99.90
8914;DHT22;4492;48.736;9.092;2023-04-29T02:43:46;9.90;99.90
8914;DHT22;4492;48.736;9.092;2023-04-29T02:46:13;9.80;99.90
8914;DHT22;4492;48.736;9.092;2023-04-29T02:48:40;9.70;99.90
8914;DHT22;4492;48.736;9.092;2023-04-29T02:51:05;9.70;99.90
8914;DHT22;4492;48.736;9.092;2023-04-29T02:53:31;9.60;99.90
8914;DHT22;4492;48.736;9.092;2023-04-29T02:55:57;9.50;99.90
8914;DHT22;4492;48.736;9.092;2023-04-29T02:58:23;9.50;99.90
8914;DHT22;4492;48.736;9.092;2023-04-29T03:00:49;9.50;99.90
8914;DHT22;4492;48.736;9.092;2023-04-29T03:03:15;9.40;99.90
8914;DHT22;4492;48.736;9.092;2023-04-29T03:05:41;9.40;99.90
8914;DHT22;4492;48.736;9.092;2023-04-29T03:08:07;9.40;99.90
8914;DHT22;4492;48.736;9.092;2023-04-29T03:10:35;9.40;99.90
8914;DHT22;4492;48.736;9.092;2023-04-29T03:13:01;9.40;99.90
8914;DHT22;4492;48.736;9.092;2023-04-29T03:15:26;9.40;99.90
8914;DHT22;4492;48.736;9.092;2023-04-29T03:17:52;9.40;99.90
8914;DHT22;4492;48.736;9.092;2023-04-29T03:20:18;9.40;99.90
8914;DHT22;4492;48.736;9.092;2023-04-29T03:22:44;9.50;99.90
8914;DHT22;4492;48.736;9.092;2023-04-29T03:25:11;9.50;99.90
8914;DHT22;4492;48.736;9.092;2023-04-29T03:27:37;9.50;99.90
8914;DHT22;4492;48.736;9.092;2023-04-29T03:30:04;9.60;99.90
8914;DHT22;4492;48.736;9.092;2023-04-29T03:32:30;9.60;99.90
8914;DHT22;4492;48.736;9.092;2023-04-29T03:34:55;9.60;99.90
8914;DHT22;4492;48.736;9.092;2023-04-29T03:37:22;9.60;99.90
8914;DHT22;4492;48.736;9.092;2023-04-29T03:39:47;9.70;99.90
8914;DHT22;4492;48.736;9.092;2023-04-29T03:42:13;9.70;99.90
8914;DHT22;4492;48.736;9.092;2023-04-29T03:44:39;9.60;99.90
8914;DHT22;4492;48.736;9.092;2023-04-29T03:47:05;9.60;99.90
8914;DHT22;4492;48.736;9.092;2023-04-29T03:49:31;9.60;99.90
8914;DHT22;4492;48.736;9.092;2023-04-29T03:51:56;9.60;99.90
8914;DHT22;4492;48.736;9.092;2023-04-29T03:54:22;9.60;99.90
8914;DHT22;4492;48.736;9.092;2023-04-29T03:56:48;9.60;99.90
8914;DHT22;4492;48.736;9.092;2023-04-29T03:59:13;9.60;99.90
8914;DHT22;4492;48.736;9.092;2023-04-29T04:01:42;9.60;99.90
8914;DHT22;4492;48.736;9.092;2023-04-29T04:04:08;9.60;99.90
8914;DHT22;4492;48.736;9.092;2023-04-29T04:06:34;9.60;99.90
8914;DHT22;4492;48.736;9.092;2023-04-29T04:08:59;9.60;99.90
8914;DHT22;4492;48.736;9.092;2023-04-29T04:11:25;9.60;99.90
8914;DHT22;4492;48.736;9.092;2023-04-29T04:13:51;9.70;99.90
8914;DHT22;4492;48.736;9.092;2023-04-29T04:16:17;9.80;99.90
8914;DHT22;4492;48.736;9.092;2023-04-29T04:18:42;9.90;99.90
8914;DHT22;4492;48.736;9.092;2023-04-29T04:21:09;9.90;99.90
8914;DHT22;4492;48.736;9.092;2023-04-29T04:23:35;9.90;99.90
8914;DHT22;4492;48.736;9.092;2023-04-29T04:26:02;10.00;99.90
8914;DHT22;4492;48.736;9.092;2023-04-29T04:28:28;9.90;99.90
8914;DHT22;4492;48.736;9.092;2023-04-29T04:30:54;9.90;99.90
8914;DHT22;4492;48.736;9.092;2023-04-29T04:33:19;9.80;99.90
8914;DHT22;4492;48.736;9.092;2023-04-29T04:35:45;9.70;99.90
8914;DHT22;4492;48.736;9.092;2023-04-29T04:38:11;9.60;99.90
8914;DHT22;4492;48.736;9.092;2023-04-29T04:40:40;9.60;99.90
8914;DHT22;4492;48.736;9.092;2023-04-29T04:43:06;9.70;99.90
8914;DHT22;4492;48.736;9.092;2023-04-29T04:45:32;9.70;99.90
8914;DHT22;4492;48.736;9.092;2023-04-29T04:47:58;9.60;99.90
8914;DHT22;4492;48.736;9.092;2023-04-29T04:50:23;9.70;99.90
8914;DHT22;4492;48.736;9.092;2023-04-29T04:52:55;9.70;99.90
8914;DHT22;4492;48.736;9.092;2023-04-29T04:55:21;9.70;99.90
8914;DHT22;4492;48.736;9.092;2023-04-29T04:57:47;9.60;99.90
8914;DHT22;4492;48.736;9.092;2023-04-29T05:00:13;9.60;99.90
8914;DHT22;4492;48.736;9.092;2023-04-29T05:02:38;9.60;99.90
8914;DHT22;4492;48.736;9.092;2023-04-29T05:05:04;9.70;99.90
8914;DHT22;4492;48.736;9.092;2023-04-29T05:07:31;9.70;99.90
8914;DHT22;4492;48.736;9.092;2023-04-29T05:09:57;9.80;99.90
8914;DHT22;4492;48.736;9.092;2023-04-29T05:12:23;9.80;99.90
8914;DHT22;4492;48.736;9.092;2023-04-29T05:14:55;9.90;99.90
8914;DHT22;4492;48.736;9.092;2023-04-29T05:17:21;9.90;99.90
8914;DHT22;4492;48.736;9.092;2023-04-29T05:19:47;9.90;99.90
8914;DHT22;4492;48.736;9.092;2023-04-29T05:22:12;10.00;99.90
8914;DHT22;4492;48.736;9.092;2023-04-29T05:24:38;10.10;99.90
8914;DHT22;4492;48.736;9.092;2023-04-29T05:27:04;10.20;99.90
8914;DHT22;4492;48.736;9.092;2023-04-29T05:29:30;10.30;99.90
8914;DHT22;4492;48.736;9.092;2023-04-29T05:31:55;10.50;99.90
8914;DHT22;4492;48.736;9.092;2023-04-29T05:34:21;10.70;99.90
8914;DHT22;4492;48.736;9.092;2023-04-29T05:36:47;10.90;99.90
8914;DHT22;4492;48.736;9.092;2023-04-29T05:39:12;10.90;99.90
8914;DHT22;4492;48.736;9.092;2023-04-29T05:41:39;11.10;99.90
8914;DHT22;4492;48.736;9.092;2023-04-29T05:44:04;11.10;99.90
8914;DHT22;4492;48.736;9.092;2023-04-29T05:46:30;11.20;99.90
8914;DHT22;4492;48.736;9.092;2023-04-29T05:48:55;11.30;99.90
8914;DHT22;4492;48.736;9.092;2023-04-29T05:51:21;11.30;99.90
8914;DHT22;4492;48.736;9.092;2023-04-29T05:53:47;11.40;99.90
8914;DHT22;4492;48.736;9.092;2023-04-29T05:56:13;11.40;99.90
8914;DHT22;4492;48.736;9.092;2023-04-29T05:58:38;11.50;99.90
8914;DHT22;4492;48.736;9.092;2023-04-29T06:01:04;11.60;99.90
8914;DHT22;4492;48.736;9.092;2023-04-29T06:03:29;11.60;99.90
8914;DHT22;4492;48.736;9.092;2023-04-29T06:05:55;11.70;99.90
8914;DHT22;4492;48.736;9.092;2023-04-29T06:08:21;11.80;99.90
8914;DHT22;4492;48.736;9.092;2023-04-29T06:10:47;11.80;99.90
8914;DHT22;4492;48.736;9.092;2023-04-29T06:13:16;11.80;99.90
8914;DHT22;4492;48.736;9.092;2023-04-29T06:15:42;11.80;99.90
8914;DHT22;4492;48.736;9.092;2023-04-29T06:18:07;11.90;99.90
8914;DHT22;4492;48.736;9.092;2023-04-29T06:20:33;11.80;99.90
8914;DHT22;4492;48.736;9.092;2023-04-29T06:22:59;11.80;99.90
8914;DHT22;4492;48.736;9.092;2023-04-29T06:25:24;11.80;99.90
8914;DHT22;4492;48.736;9.092;2023-04-29T06:27:50;11.90;99.90
8914;DHT22;4492;48.736;9.092;2023-04-29T06:30:16;12.10;99.90
8914;DHT22;4492;48.736;9.092;2023-04-29T06:32:42;12.10;99.90
8914;DHT22;4492;48.736;9.092;2023-04-29T06:35:07;12.20;99.90
8914;DHT22;4492;48.736;9.092;2023-04-29T06:37:33;12.40;99.90
8914;DHT22;4492;48.736;9.092;2023-04-29T06:39:59;12.60;99.90
8914;DHT22;4492;48.736;9.092;2023-04-29T06:42:24;12.70;99.90
8914;DHT22;4492;48.736;9.092;2023-04-29T06:44:50;12.70;99.90
8914;DHT22;4492;48.736;9.092;2023-04-29T06:47:16;12.60;99.90
8914;DHT22;4492;48.736;9.092;2023-04-29T06:49:41;12.50;99.90
8914;DHT22;4492;48.736;9.092;2023-04-29T06:52:10;12.50;99.90
8914;DHT22;4492;48.736;9.092;2023-04-29T06:54:36;12.60;99.90
8914;DHT22;4492;48.736;9.092;2023-04-29T06:57:01;12.60;99.90
8914;DHT22;4492;48.736;9.092;2023-04-29T06:59:27;12.80;99.90
8914;DHT22;4492;48.736;9.092;2023-04-29T07:01:52;12.80;99.90
8914;DHT22;4492;48.736;9.092;2023-04-29T07:04:18;12.80;99.90
8914;DHT22;4492;48.736;9.092;2023-04-29T07:06:44;13.00;99.90
8914;DHT22;4492;48.736;9.092;2023-04-29T07:09:11;13.00;99.90
8914;DHT22;4492;48.736;9.092;2023-04-29T07:11:38;13.10;99.90
8914;DHT22;4492;48.736;9.092;2023-04-29T07:14:04;13.20;99.90
8914;DHT22;4492;48.736;9.092;2023-04-29T07:16:30;13.30;99.90
8914;DHT22;4492;48.736;9.092;2023-04-29T07:18:55;13.30;99.90
8914;DHT22;4492;48.736;9.092;2023-04-29T07:21:21;13.30;99.90
8914;DHT22;4492;48.736;9.092;2023-04-29T07:23:47;13.30;99.90
8914;DHT22;4492;48.736;9.092;2023-04-29T07:26:14;13.50;99.90
8914;DHT22;4492;48.736;9.092;2023-04-29T07:28:41;13.60;99.90
8914;DHT22;4492;48.736;9.092;2023-04-29T07:31:07;13.50;99.90
8914;DHT22;4492;48.736;9.092;2023-04-29T07:33:33;13.30;99.90
8914;DHT22;4492;48.736;9.092;2023-04-29T07:35:59;13.20;99.90
8914;DHT22;4492;48.736;9.092;2023-04-29T07:38:25;13.40;99.90
8914;DHT22;4492;48.736;9.092;2023-04-29T07:40:51;13.40;99.90
8914;DHT22;4492;48.736;9.092;2023-04-29T07:43:16;13.60;99.90
8914;DHT22;4492;48.736;9.092;2023-04-29T07:45:42;13.80;99.90
8914;DHT22;4492;48.736;9.092;2023-04-29T07:48:08;13.80;99.90
8914;DHT22;4492;48.736;9.092;2023-04-29T07:50:34;13.80;99.90
8914;DHT22;4492;48.736;9.092;2023-04-29T07:53:01;13.80;99.90
8914;DHT22;4492;48.736;9.092;2023-04-29T07:55:27;13.90;99.90
8914;DHT22;4492;48.736;9.092;2023-04-29T07:57:56;13.90;99.90
8914;DHT22;4492;48.736;9.092;2023-04-29T08:00:22;13.90;99.90
8914;DHT22;4492;48.736;9.092;2023-04-29T08:02:52;14.10;99.90
8914;DHT22;4492;48.736;9.092;2023-04-29T08:05:18;14.40;99.90
8914;DHT22;4492;48.736;9.092;2023-04-29T08:07:46;14.60;99.90
8914;DHT22;4492;48.736;9.092;2023-04-29T08:10:11;14.80;99.90
8914;DHT22;4492;48.736;9.092;2023-04-29T08:12:37;14.90;99.90
8914;DHT22;4492;48.736;9.092;2023-04-29T08:15:03;15.00;99.90
8914;DHT22;4492;48.736;9.092;2023-04-29T08:17:29;15.10;99.90
8914;DHT22;4492;48.736;9.092;2023-04-29T08:19:55;15.10;99.90
8914;DHT22;4492;48.736;9.092;2023-04-29T08:22:21;15.20;99.90
8914;DHT22;4492;48.736;9.092;2023-04-29T08:24:46;15.30;99.90
8914;DHT22;4492;48.736;9.092;2023-04-29T08:27:13;15.40;99.90
8914;DHT22;4492;48.736;9.092;2023-04-29T08:29:39;15.40;99.90
8914;DHT22;4492;48.736;9.092;2023-04-29T08:32:05;15.50;99.90
8914;DHT22;4492;48.736;9.092;2023-04-29T08:34:31;15.40;99.90
8914;DHT22;4492;48.736;9.092;2023-04-29T08:36:58;15.40;99.90
8914;DHT22;4492;48.736;9.092;2023-04-29T08:39:23;15.20;99.90
8914;DHT22;4492;48.736;9.092;2023-04-29T08:41:50;15.10;99.90
8914;DHT22;4492;48.736;9.092;2023-04-29T08:44:16;15.00;99.90
8914;DHT22;4492;48.736;9.092;2023-04-29T08:46:45;15.00;99.90
8914;DHT22;4492;48.736;9.092;2023-04-29T08:49:12;15.10;99.90
8914;DHT22;4492;48.736;9.092;2023-04-29T08:51:38;15.20;99.90
8914;DHT22;4492;48.736;9.092;2023-04-29T08:54:03;15.20;99.90
8914;DHT22;4492;48.736;9.092;2023-04-29T08:56:30;15.30;99.90
8914;DHT22;4492;48.736;9.092;2023-04-29T08:58:58;15.20;99.90
8914;DHT22;4492;48.736;9.092;2023-04-29T09:01:29;15.00;99.90
8914;DHT22;4492;48.736;9.092;2023-04-29T09:06:58;14.80;99.90
8914;DHT22;4492;48.736;9.092;2023-04-29T09:09:24;14.60;99.90
8914;DHT22;4492;48.736;9.092;2023-04-29T09:11:50;14.60;99.90
8914;DHT22;4492;48.736;9.092;2023-04-29T09:14:17;14.70;99.90
8914;DHT22;4492;48.736;9.092;2023-04-29T09:16:45;15.00;99.90
8914;DHT22;4492;48.736;9.092;2023-04-29T09:19:28;15.10;99.90
8914;DHT22;4492;48.736;9.092;2023-04-29T09:21:55;15.10;99.90
8914;DHT22;4492;48.736;9.092;2023-04-29T09:24:25;15.10;99.90
8914;DHT22;4492;48.736;9.092;2023-04-29T09:26:52;15.10;99.90
8914;DHT22;4492;48.736;9.092;2023-04-29T09:29:18;15.10;99.90
8914;DHT22;4492;48.736;9.092;2023-04-29T09:31:44;15.00;99.90
8914;DHT22;4492;48.736;9.092;2023-04-29T09:34:11;14.80;99.90
8914;DHT22;4492;48.736;9.092;2023-04-29T09:36:48;14.60;99.90
8914;DHT22;4492;48.736;9.092;2023-04-29T09:39:20;14.50;99.90
8914;DHT22;4492;48.736;9.092;2023-04-29T09:44:19;14.60;99.90
8914;DHT22;4492;48.736;9.092;2023-04-29T09:46:58;14.80;99.90
8914;DHT22;4492;48.736;9.092;2023-04-29T09:49:37;14.80;99.90
8914;DHT22;4492;48.736;9.092;2023-04-29T09:52:09;14.80;99.90
8914;DHT22;4492;48.736;9.092;2023-04-29T09:54:36;15.00;99.90
8914;DHT22;4492;48.736;9.092;2023-04-29T09:57:03;15.10;99.90
8914;DHT22;4492;48.736;9.092;2023-04-29T09:59:30;15.10;99.90
8914;DHT22;4492;48.736;9.092;2023-04-29T10:01:57;15.00;99.90
8914;DHT22;4492;48.736;9.092;2023-04-29T10:04:25;14.80;99.90
8914;DHT22;4492;48.736;9.092;2023-04-29T10:06:54;14.60;99.90
8914;DHT22;4492;48.736;9.092;2023-04-29T10:09:21;14.60;99.90
8914;DHT22;4492;48.736;9.092;2023-04-29T10:11:49;14.80;99.90
8914;DHT22;4492;48.736;9.092;2023-04-29T10:14:16;15.10;99.90
8914;DHT22;4492;48.736;9.092;2023-04-29T10:16:45;15.40;99.90
8914;DHT22;4492;48.736;9.092;2023-04-29T10:19:17;15.40;99.90
8914;DHT22;4492;48.736;9.092;2023-04-29T10:21:44;15.40;99.90
8914;DHT22;4492;48.736;9.092;2023-04-29T10:24:10;15.30;99.90
8914;DHT22;4492;48.736;9.092;2023-04-29T10:26:38;15.30;99.90
8914;DHT22;4492;48.736;9.092;2023-04-29T10:29:04;15.40;99.90
8914;DHT22;4492;48.736;9.092;2023-04-29T10:31:33;15.70;99.90
8914;DHT22;4492;48.736;9.092;2023-04-29T10:33:59;16.00;99.90
8914;DHT22;4492;48.736;9.092;2023-04-29T10:36:27;16.10;99.90
8914;DHT22;4492;48.736;9.092;2023-04-29T10:38:57;16.20;99.90
8914;DHT22;4492;48.736;9.092;2023-04-29T10:41:30;16.10;99.90
8914;DHT22;4492;48.736;9.092;2023-04-29T10:43:58;16.10;99.90
8914;DHT22;4492;48.736;9.092;2023-04-29T10:46:25;16.10;99.90
8914;DHT22;4492;48.736;9.092;2023-04-29T10:49:00;16.20;99.90
8914;DHT22;4492;48.736;9.092;2023-04-29T10:51:32;16.10;99.90
8914;DHT22;4492;48.736;9.092;2023-04-29T10:54:06;15.90;99.90
8914;DHT22;4492;48.736;9.092;2023-04-29T10:56:39;15.70;99.90
8914;DHT22;4492;48.736;9.092;2023-04-29T10:59:08;15.60;99.90
8914;DHT22;4492;48.736;9.092;2023-04-29T11:01:42;15.60;99.90
8914;DHT22;4492;48.736;9.092;2023-04-29T11:04:08;15.60;99.90
8914;DHT22;4492;48.736;9.092;2023-04-29T11:09:12;15.80;99.90
8914;DHT22;4492;48.736;9.092;2023-04-29T11:11:56;15.80;99.90
8914;DHT22;4492;48.736;9.092;2023-04-29T11:14:41;15.80;99.90
8914;DHT22;4492;48.736;9.092;2023-04-29T11:17:12;15.90;99.90
8914;DHT22;4492;48.736;9.092;2023-04-29T11:19:45;16.00;99.80
8914;DHT22;4492;48.736;9.092;2023-04-29T11:24:59;16.00;99.30
8914;DHT22;4492;48.736;9.092;2023-04-29T11:27:33;16.00;97.90
8914;DHT22;4492;48.736;9.092;2023-04-29T11:30:00;16.00;97.80
8914;DHT22;4492;48.736;9.092;2023-04-29T11:32:35;16.00;97.20
8914;DHT22;4492;48.736;9.092;2023-04-29T11:35:12;16.00;97.00
8914;DHT22;4492;48.736;9.092;2023-04-29T11:37:39;16.10;97.00
8914;DHT22;4492;48.736;9.092;2023-04-29T11:40:05;16.10;96.80
8914;DHT22;4492;48.736;9.092;2023-04-29T11:42:34;16.30;96.40
8914;DHT22;4492;48.736;9.092;2023-04-29T11:45:01;16.40;96.10
8914;DHT22;4492;48.736;9.092;2023-04-29T11:47:29;16.60;95.30
8914;DHT22;4492;48.736;9.092;2023-04-29T11:50:06;16.60;94.80
8914;DHT22;4492;48.736;9.092;2023-04-29T11:52:35;16.70;94.80
8914;DHT22;4492;48.736;9.092;2023-04-29T11:55:02;16.80;94.50
8914;DHT22;4492;48.736;9.092;2023-04-29T11:57:28;16.70;94.40
8914;DHT22;4492;48.736;9.092;2023-04-29T11:59:54;16.70;94.50
8914;DHT22;4492;48.736;9.092;2023-04-29T12:02:22;16.80;94.80
8914;DHT22;4492;48.736;9.092;2023-04-29T12:04:48;16.90;95.00
8914;DHT22;4492;48.736;9.092;2023-04-29T12:07:14;17.20;95.10
8914;DHT22;4492;48.736;9.092;2023-04-29T12:09:42;17.60;94.80
8914;DHT22;4492;48.736;9.092;2023-04-29T12:12:09;18.00;96.00
8914;DHT22;4492;48.736;9.092;2023-04-29T12:14:35;18.10;96.10
8914;DHT22;4492;48.736;9.092;2023-04-29T12:17:01;17.70;96.70
8914;DHT22;4492;48.736;9.092;2023-04-29T12:19:27;17.10;97.50
8914;DHT22;4492;48.736;9.092;2023-04-29T12:21:52;16.60;98.80
8914;DHT22;4492;48.736;9.092;2023-04-29T12:24:19;16.30;99.30
8914;DHT22;4492;48.736;9.092;2023-04-29T12:26:45;15.90;99.90
8914;DHT22;4492;48.736;9.092;2023-04-29T12:29:12;15.70;99.90
8914;DHT22;4492;48.736;9.092;2023-04-29T12:31:37;15.60;99.90
8914;DHT22;4492;48.736;9.092;2023-04-29T12:34:03;15.50;99.90
8914;DHT22;4492;48.736;9.092;2023-04-29T12:36:32;15.50;99.90
8914;DHT22;4492;48.736;9.092;2023-04-29T12:38:59;15.30;99.90
8914;DHT22;4492;48.736;9.092;2023-04-29T12:41:41;15.20;99.90
8914;DHT22;4492;48.736;9.092;2023-04-29T12:44:07;15.20;99.90
8914;DHT22;4492;48.736;9.092;2023-04-29T12:46:39;15.30;99.90
8914;DHT22;4492;48.736;9.092;2023-04-29T12:49:05;15.40;99.90
8914;DHT22;4492;48.736;9.092;2023-04-29T12:51:31;15.50;99.90
8914;DHT22;4492;48.736;9.092;2023-04-29T12:53:59;15.70;99.90
8914;DHT22;4492;48.736;9.092;2023-04-29T12:56:25;16.00;99.90
8914;DHT22;4492;48.736;9.092;2023-04-29T12:58:51;16.10;99.90
8914;DHT22;4492;48.736;9.092;2023-04-29T13:01:19;16.00;99.90
8914;DHT22;4492;48.736;9.092;2023-04-29T13:03:45;16.10;99.90
8914;DHT22;4492;48.736;9.092;2023-04-29T13:06:10;16.10;99.90
8914;DHT22;4492;48.736;9.092;2023-04-29T13:08:36;16.10;99.90
8914;DHT22;4492;48.736;9.092;2023-04-29T13:11:02;16.20;99.90
8914;DHT22;4492;48.736;9.092;2023-04-29T13:13:27;16.00;99.90
8914;DHT22;4492;48.736;9.092;2023-04-29T13:15:53;15.80;99.90
8914;DHT22;4492;48.736;9.092;2023-04-29T13:18:18;15.80;99.90
8914;DHT22;4492;48.736;9.092;2023-04-29T13:20:44;15.90;99.90
8914;DHT22;4492;48.736;9.092;2023-04-29T13:23:10;15.90;99.90
8914;DHT22;4492;48.736;9.092;2023-04-29T13:25:36;15.80;99.90
8914;DHT22;4492;48.736;9.092;2023-04-29T13:28:02;15.70;99.90
8914;DHT22;4492;48.736;9.092;2023-04-29T13:30:29;15.70;99.90
8914;DHT22;4492;48.736;9.092;2023-04-29T13:32:55;15.50;99.90
8914;DHT22;4492;48.736;9.092;2023-04-29T13:35:20;15.50;99.90
8914;DHT22;4492;48.736;9.092;2023-04-29T13:37:46;15.50;99.90
8914;DHT22;4492;48.736;9.092;2023-04-29T13:40:12;15.50;99.90
8914;DHT22;4492;48.736;9.092;2023-04-29T13:42:38;15.50;99.90
8914;DHT22;4492;48.736;9.092;2023-04-29T13:45:03;15.60;99.90
8914;DHT22;4492;48.736;9.092;2023-04-29T13:47:29;15.70;99.90
8914;DHT22;4492;48.736;9.092;2023-04-29T13:49:55;15.70;99.90
8914;DHT22;4492;48.736;9.092;2023-04-29T13:52:20;15.60;99.90
8914;DHT22;4492;48.736;9.092;2023-04-29T13:54:46;15.40;99.90
8914;DHT22;4492;48.736;9.092;2023-04-29T13:57:11;15.20;99.90
8914;DHT22;4492;48.736;9.092;2023-04-29T13:59:37;15.20;99.90
8914;DHT22;4492;48.736;9.092;2023-04-29T14:02:03;15.20;99.90
8914;DHT22;4492;48.736;9.092;2023-04-29T14:04:29;15.40;99.90
8914;DHT22;4492;48.736;9.092;2023-04-29T14:06:55;15.60;99.90
8914;DHT22;4492;48.736;9.092;2023-04-29T14:09:22;15.70;99.90
8914;DHT22;4492;48.736;9.092;2023-04-29T14:11:48;15.60;99.90
8914;DHT22;4492;48.736;9.092;2023-04-29T14:14:15;15.60;99.90
8914;DHT22;4492;48.736;9.092;2023-04-29T14:16:41;15.60;99.90
8914;DHT22;4492;48.736;9.092;2023-04-29T14:19:06;15.40;99.90
8914;DHT22;4492;48.736;9.092;2023-04-29T14:21:33;15.60;99.90
8914;DHT22;4492;48.736;9.092;2023-04-29T14:23:59;15.70;99.90
8914;DHT22;4492;48.736;9.092;2023-04-29T14:26:25;15.70;99.90
8914;DHT22;4492;48.736;9.092;2023-04-29T14:28:51;15.70;99.90
8914;DHT22;4492;48.736;9.092;2023-04-29T14:31:29;15.80;99.90
8914;DHT22;4492;48.736;9.092;2023-04-29T14:33:56;15.90;99.90
8914;DHT22;4492;48.736;9.092;2023-04-29T14:36:22;15.90;99.90
8914;DHT22;4492;48.736;9.092;2023-04-29T14:38:47;15.80;99.90
8914;DHT22;4492;48.736;9.092;2023-04-29T14:41:13;15.80;99.90
8914;DHT22;4492;48.736;9.092;2023-04-29T14:43:39;15.50;99.90
8914;DHT22;4492;48.736;9.092;2023-04-29T14:46:06;15.40;99.90
8914;DHT22;4492;48.736;9.092;2023-04-29T14:48:31;15.40;99.90
8914;DHT22;4492;48.736;9.092;2023-04-29T14:50:57;15.30;99.90
8914;DHT22;4492;48.736;9.092;2023-04-29T14:53:23;15.30;99.90
8914;DHT22;4492;48.736;9.092;2023-04-29T14:55:49;15.20;99.90
8914;DHT22;4492;48.736;9.092;2023-04-29T14:58:15;15.20;99.90
8914;DHT22;4492;48.736;9.092;2023-04-29T15:00:41;15.10;99.90
8914;DHT22;4492;48.736;9.092;2023-04-29T15:03:06;15.00;99.90
8914;DHT22;4492;48.736;9.092;2023-04-29T15:05:32;15.00;99.90
8914;DHT22;4492;48.736;9.092;2023-04-29T15:07:58;15.00;99.90
8914;DHT22;4492;48.736;9.092;2023-04-29T15:10:26;14.90;99.90
8914;DHT22;4492;48.736;9.092;2023-04-29T15:12:52;14.70;99.90
8914;DHT22;4492;48.736;9.092;2023-04-29T15:15:17;14.60;99.90
8914;DHT22;4492;48.736;9.092;2023-04-29T15:17:43;14.40;99.90
8914;DHT22;4492;48.736;9.092;2023-04-29T15:20:09;14.50;99.90
8914;DHT22;4492;48.736;9.092;2023-04-29T15:22:35;14.40;99.90
8914;DHT22;4492;48.736;9.092;2023-04-29T15:25:00;14.30;99.90
8914;DHT22;4492;48.736;9.092;2023-04-29T15:27:27;14.30;99.90
8914;DHT22;4492;48.736;9.092;2023-04-29T15:29:52;14.10;99.90
8914;DHT22;4492;48.736;9.092;2023-04-29T15:32:21;14.00;99.90
8914;DHT22;4492;48.736;9.092;2023-04-29T15:34:47;13.90;99.90
8914;DHT22;4492;48.736;9.092;2023-04-29T15:37:12;13.90;99.90
8914;DHT22;4492;48.736;9.092;2023-04-29T15:39:38;13.90;99.90
8914;DHT22;4492;48.736;9.092;2023-04-29T15:42:04;13.80;99.90
8914;DHT22;4492;48.736;9.092;2023-04-29T15:44:29;13.60;99.90
8914;DHT22;4492;48.736;9.092;2023-04-29T15:46:56;13.40;99.90
8914;DHT22;4492;48.736;9.092;2023-04-29T15:49:22;13.30;99.90
8914;DHT22;4492;48.736;9.092;2023-04-29T15:51:48;13.20;99.90
8914;DHT22;4492;48.736;9.092;2023-04-29T15:54:14;13.00;99.90
8914;DHT22;4492;48.736;9.092;2023-04-29T15:56:39;13.00;99.90
8914;DHT22;4492;48.736;9.092;2023-04-29T15:59:05;12.80;99.90
8914;DHT22;4492;48.736;9.092;2023-04-29T16:01:31;12.80;99.90
8914;DHT22;4492;48.736;9.092;2023-04-29T16:03:56;12.70;99.90
8914;DHT22;4492;48.736;9.092;2023-04-29T16:06:22;12.70;99.90
8914;DHT22;4492;48.736;9.092;2023-04-29T16:08:47;12.70;99.90
8914;DHT22;4492;48.736;9.092;2023-04-29T16:11:14;12.70;99.90
8914;DHT22;4492;48.736;9.092;2023-04-29T16:13:39;12.60;99.90
8914;DHT22;4492;48.736;9.092;2023-04-29T16:16:06;12.60;99.90
8914;DHT22;4492;48.736;9.092;2023-04-29T16:18:31;12.70;99.90
8914;DHT22;4492;48.736;9.092;2023-04-29T16:20:57;12.60;99.90